Jacksonville, IL (62650)

11:10 AM CDT on August 24, 2016 (GMT -0500)
Book Lane | | Change Station

Elev 663 ft 39.73 °N, 90.26 °W | Updated 8 seconds ago

Overcast
Overcast
82.0 °F
Feels Like 88 °F
N
7.4
Wind Variable Wind from WSW
Gusts 11.4 mph

Today
High -- | Low -- °F
--% Chance of Precip.
Yesterday
High -- | Low -- °F
Precip. -- in
Pressure 30.01 in
Visibility 10.0 miles
Clouds Mostly Cloudy 2800 ft
Overcast 3600 ft
Heat Index 88 °F
Dew Point 74 °F
Humidity 76%
Rainfall 0.00 in
Snow Depth Not available.
6:22 AM 7:43 PM
Waning Gibbous, 56% visible
METAR KIJX 241555Z AUTO 24011G21KT 10SM BKN028 OVC036 28/23 A3001 RMK AO2 T02790231
Pressure 30.01 in
Visibility 10.0 miles
Clouds Mostly Cloudy 2800 ft
Overcast 3600 ft
Heat Index 88 °F
Dew Point 74 °F
Humidity 76%
Rainfall 0.00 in
Snow Depth Not available.
6:22 AM 7:43 PM
Waning Gibbous, 56% visible
METAR KIJX 241555Z AUTO 24011G21KT 10SM BKN028 OVC036 28/23 A3001 RMK AO2 T02790231

10-Day Weather Forecast

Almanac

Astronomy

Aug. 24, 2016 Rise Set
Actual Time
Civil Twilight
Nautical Twilight
Astronomical Twilight
Moon
Length of Visible Light
Length of Day
Tomorrow will be .
, % of the Moon is Illuminated

Today's Extremes

State Highs State Lows

Community

WunderPhotos

Upload Photos

1,934,637 photos uploaded!

WunderBlog® & News

Nearby

Air Quality

  Air Quality AQ Index Pollutant
Not available.

Snow Depth

Station Depth Elevation

Earthquake Activity

City Distance Mag. Time & Date
Minimum magnitude displayed is 2.5.

Coastal Water Temperatures

Place Temperature

Stations

Nearby Weather Stations

Station Location Temp. Windchill Dew Point Humidity Wind Precip. Elev Updated Type
                   

Watches & Warnings

There are currently no watches in effect.